createdAt,value
2023-05-14T00:01:29.280Z,13.00
2023-05-14T00:03:57.047Z,12.33
2023-05-14T00:06:24.903Z,12.00
2023-05-14T00:08:51.730Z,16.00
2023-05-14T00:11:21.099Z,11.60
2023-05-14T00:13:48.140Z,12.50
2023-05-14T00:16:14.972Z,13.00
2023-05-14T00:18:42.929Z,11.00
2023-05-14T00:21:09.750Z,12.00
2023-05-14T00:23:37.502Z,13.00
2023-05-14T00:26:05.292Z,12.00
2023-05-14T00:28:32.168Z,9.00
2023-05-14T00:31:00.066Z,12.00
2023-05-14T00:33:29.728Z,11.50
2023-05-14T00:35:57.541Z,11.33
2023-05-14T00:38:27.825Z,12.67
2023-05-14T00:40:56.217Z,13.00
2023-05-14T00:43:25.484Z,12.00
2023-05-14T00:45:54.776Z,13.33
2023-05-14T00:48:23.705Z,12.00
2023-05-14T00:50:52.102Z,11.00
2023-05-14T00:53:21.273Z,12.00
2023-05-14T00:55:50.397Z,12.67
2023-05-14T00:58:19.538Z,12.00
2023-05-14T01:00:46.557Z,12.50
2023-05-14T01:03:14.589Z,12.00
2023-05-14T01:06:05.543Z,9.80
2023-05-14T01:08:53.080Z,11.00
2023-05-14T01:11:32.461Z,12.00
2023-05-14T01:14:12.179Z,13.00
2023-05-14T01:16:40.903Z,11.60
2023-05-14T01:19:32.880Z,13.67
2023-05-14T01:22:00.660Z,12.00
2023-05-14T01:24:28.376Z,11.00
2023-05-14T01:27:12.803Z,11.00
2023-05-14T01:29:45.568Z,11.67
2023-05-14T01:32:13.862Z,12.00
2023-05-14T01:34:42.234Z,13.00
2023-05-14T01:37:12.901Z,12.00
2023-05-14T01:39:41.375Z,13.00
2023-05-14T01:42:11.044Z,11.80
2023-05-14T01:44:39.965Z,13.60
2023-05-14T01:47:07.780Z,12.00
2023-05-14T01:49:37.268Z,12.00
2023-05-14T01:52:04.216Z,12.00
2023-05-14T01:54:31.836Z,11.67
2023-05-14T01:57:01.424Z,14.00
2023-05-14T01:59:30.089Z,13.00
2023-05-14T02:01:57.901Z,12.33
2023-05-14T02:04:24.986Z,12.00
2023-05-14T02:06:52.826Z,13.00
2023-05-14T02:09:20.827Z,12.00
2023-05-14T02:11:48.725Z,14.33
2023-05-14T02:14:15.953Z,11.50
2023-05-14T02:16:43.657Z,14.67
2023-05-14T02:19:11.476Z,13.00
2023-05-14T02:21:41.058Z,12.83
2023-05-14T02:24:08.740Z,14.33
2023-05-14T02:26:36.636Z,15.67
2023-05-14T02:29:04.394Z,16.00
2023-05-14T02:31:31.514Z,13.00
2023-05-14T02:33:58.358Z,14.00
2023-05-14T02:36:26.088Z,13.00
2023-05-14T02:38:53.789Z,16.00
2023-05-14T02:41:21.654Z,14.67
2023-05-14T02:43:49.357Z,12.33
2023-05-14T02:46:17.154Z,14.00
2023-05-14T02:48:44.889Z,12.33
2023-05-14T02:51:12.624Z,12.00
2023-05-14T02:53:39.605Z,13.00
2023-05-14T02:56:08.210Z,12.00
2023-05-14T02:58:36.122Z,17.00
2023-05-14T03:01:04.132Z,16.00
2023-05-14T03:03:31.836Z,15.00
2023-05-14T03:06:00.158Z,13.00
2023-05-14T03:08:27.469Z,14.00
2023-05-14T03:10:55.106Z,12.00
2023-05-14T03:13:22.010Z,15.00
2023-05-14T03:15:48.960Z,15.00
2023-05-14T03:18:16.664Z,14.33
2023-05-14T03:20:44.624Z,13.67
2023-05-14T03:23:13.058Z,13.67
2023-05-14T03:25:41.141Z,15.33
2023-05-14T03:28:08.910Z,14.33
2023-05-14T03:30:36.898Z,14.67
2023-05-14T03:33:04.421Z,12.00
2023-05-14T03:35:32.525Z,12.00
2023-05-14T03:38:00.198Z,15.33
2023-05-14T03:40:27.125Z,10.50
2023-05-14T03:42:54.116Z,12.00
2023-05-14T03:45:23.559Z,10.33
2023-05-14T03:47:51.234Z,13.67
2023-05-14T03:50:19.966Z,10.20
2023-05-14T03:52:46.994Z,12.00
2023-05-14T03:55:14.626Z,10.67
2023-05-14T03:57:42.381Z,11.00
2023-05-14T04:00:12.059Z,11.40
2023-05-14T04:02:39.872Z,11.00
2023-05-14T04:05:08.315Z,12.67
2023-05-14T04:07:36.024Z,11.67
2023-05-14T04:10:04.731Z,9.00
2023-05-14T04:12:31.849Z,9.50
2023-05-14T04:14:58.863Z,11.00
2023-05-14T04:17:26.547Z,11.00
2023-05-14T04:19:53.603Z,10.50
2023-05-14T04:22:20.514Z,10.50
2023-05-14T04:24:47.379Z,11.50
2023-05-14T04:27:21.873Z,11.67
2023-05-14T04:29:50.913Z,11.00
2023-05-14T04:32:18.411Z,10.50
2023-05-14T04:34:47.954Z,11.00
2023-05-14T04:37:14.857Z,11.00
2023-05-14T04:39:44.569Z,11.50
2023-05-14T04:42:13.662Z,10.60
2023-05-14T04:44:41.680Z,15.00
2023-05-14T04:47:09.479Z,12.67
2023-05-14T04:49:40.281Z,17.00
2023-05-14T04:52:08.273Z,18.67
2023-05-14T04:54:37.945Z,21.83
2023-05-14T04:57:05.344Z,14.00
2023-05-14T04:59:32.442Z,15.00
2023-05-14T05:01:59.283Z,13.00
2023-05-14T05:04:27.445Z,11.00
2023-05-14T05:06:55.439Z,13.33
2023-05-14T05:09:23.381Z,10.33
2023-05-14T05:11:51.366Z,14.00
2023-05-14T05:14:19.046Z,13.33
2023-05-14T05:16:46.241Z,14.00
2023-05-14T05:19:13.301Z,10.00
2023-05-14T05:21:41.437Z,11.00
2023-05-14T05:24:10.200Z,13.80
2023-05-14T05:26:38.054Z,10.33
2023-05-14T05:29:06.018Z,12.67
2023-05-14T05:31:33.308Z,13.00
2023-05-14T05:34:01.332Z,14.50
2023-05-14T05:36:29.056Z,14.00
2023-05-14T05:38:58.475Z,11.50
2023-05-14T05:41:30.264Z,14.67
2023-05-14T05:43:59.224Z,13.00
2023-05-14T05:46:26.902Z,12.00
2023-05-14T05:48:54.665Z,13.33
2023-05-14T05:51:22.353Z,10.00
2023-05-14T05:53:51.311Z,13.80
2023-05-14T05:56:18.894Z,19.33
2023-05-14T05:58:48.536Z,14.67
2023-05-14T06:01:16.355Z,11.33
2023-05-14T06:03:45.795Z,12.67
2023-05-14T06:06:15.685Z,12.67
2023-05-14T06:08:43.550Z,13.33
2023-05-14T06:11:13.081Z,11.50
2023-05-14T06:13:39.964Z,14.00
2023-05-14T06:16:07.763Z,14.00
2023-05-14T06:18:34.619Z,14.00
2023-05-14T06:21:02.488Z,14.33
2023-05-14T06:23:30.317Z,14.67
2023-05-14T06:25:58.072Z,12.00
2023-05-14T06:28:26.303Z,12.67
2023-05-14T06:30:55.920Z,15.00
2023-05-14T06:33:30.945Z,14.00
2023-05-14T06:35:59.830Z,14.33
2023-05-14T06:38:27.704Z,11.00
2023-05-14T06:40:55.321Z,10.00
2023-05-14T06:43:22.317Z,12.00
2023-05-14T06:45:52.897Z,15.00
2023-05-14T06:48:21.350Z,14.00
2023-05-14T06:50:51.062Z,13.83
2023-05-14T06:53:18.811Z,11.67
2023-05-14T06:55:48.670Z,14.00
2023-05-14T06:58:16.476Z,12.67
2023-05-14T07:00:44.180Z,15.00
2023-05-14T07:03:11.113Z,14.50
2023-05-14T07:05:38.061Z,17.00
2023-05-14T07:08:05.876Z,14.00
2023-05-14T07:10:33.712Z,14.00
2023-05-14T07:13:01.559Z,13.33
2023-05-14T07:15:29.411Z,15.00
2023-05-14T07:17:57.133Z,14.00
2023-05-14T07:20:24.715Z,13.50
2023-05-14T07:22:53.302Z,13.33
2023-05-14T07:25:22.857Z,13.33
2023-05-14T07:27:51.587Z,14.00
2023-05-14T07:30:19.778Z,15.00
2023-05-14T07:32:47.547Z,13.33
2023-05-14T07:35:15.352Z,10.00
2023-05-14T07:37:44.481Z,14.00
2023-05-14T07:40:11.470Z,15.50
2023-05-14T07:42:39.312Z,14.00
2023-05-14T07:45:08.115Z,16.67
2023-05-14T07:47:36.655Z,18.00
2023-05-14T07:50:03.817Z,19.00
2023-05-14T07:52:31.691Z,14.00
2023-05-14T07:54:58.569Z,19.50
2023-05-14T07:57:26.444Z,15.00
2023-05-14T07:59:54.365Z,15.00
2023-05-14T08:02:21.908Z,14.50
2023-05-14T08:04:49.101Z,15.00
2023-05-14T08:07:17.439Z,19.00
2023-05-14T08:09:44.420Z,18.00
2023-05-14T08:12:14.262Z,18.00
2023-05-14T08:14:41.431Z,19.00
2023-05-14T08:17:08.573Z,18.00
2023-05-14T08:19:36.660Z,16.00
2023-05-14T08:22:04.877Z,16.67
2023-05-14T08:24:32.847Z,16.67
2023-05-14T08:27:00.981Z,18.00
2023-05-14T08:29:28.065Z,12.00
2023-05-14T08:31:55.197Z,15.00
2023-05-14T08:34:23.270Z,15.00
2023-05-14T08:36:50.164Z,14.00
2023-05-14T08:39:17.938Z,18.00
2023-05-14T08:41:46.054Z,17.33
2023-05-14T08:44:14.787Z,15.50
2023-05-14T08:46:42.453Z,19.00
2023-05-14T08:49:29.246Z,18.67
2023-05-14T08:51:56.666Z,16.00
2023-05-14T08:54:25.392Z,18.00
2023-05-14T08:56:53.737Z,19.67
2023-05-14T08:59:22.044Z,18.00
2023-05-14T09:01:53.031Z,15.00
2023-05-14T09:04:24.417Z,16.00
2023-05-14T09:06:54.399Z,22.00
2023-05-14T09:09:23.388Z,21.00
2023-05-14T09:11:52.210Z,15.50
2023-05-14T09:14:20.055Z,15.00
2023-05-14T09:16:50.366Z,15.50
2023-05-14T09:19:19.725Z,16.67
2023-05-14T09:21:48.862Z,17.00
2023-05-14T09:24:21.983Z,22.50
2023-05-14T09:26:58.946Z,18.00
2023-05-14T09:29:30.266Z,23.33
2023-05-14T09:32:00.155Z,17.50
2023-05-14T09:34:30.711Z,18.50
2023-05-14T09:37:01.982Z,22.00
2023-05-14T09:39:31.301Z,21.50
2023-05-14T09:41:58.270Z,18.00
2023-05-14T09:44:28.489Z,20.00
2023-05-14T09:46:56.679Z,23.00
2023-05-14T09:49:25.270Z,20.33
2023-05-14T09:51:52.318Z,19.00
2023-05-14T09:54:20.400Z,20.50
2023-05-14T09:56:47.616Z,18.00
2023-05-14T09:59:15.014Z,20.00
2023-05-14T10:01:44.541Z,18.00
2023-05-14T10:04:12.715Z,20.00
2023-05-14T10:06:44.237Z,20.00
2023-05-14T10:09:13.853Z,16.00
2023-05-14T10:11:50.570Z,18.67
2023-05-14T10:14:25.405Z,23.00
2023-05-14T10:16:54.412Z,20.00
2023-05-14T10:19:25.605Z,16.00
2023-05-14T10:21:57.348Z,15.00
2023-05-14T10:24:25.124Z,18.00
2023-05-14T10:26:54.333Z,15.00
2023-05-14T10:29:33.526Z,18.33
2023-05-14T10:32:07.551Z,18.00
2023-05-14T10:34:46.264Z,18.00
2023-05-14T10:37:16.262Z,18.00
2023-05-14T10:39:47.726Z,18.00
2023-05-14T10:42:36.089Z,16.67
2023-05-14T10:45:07.781Z,18.67
2023-05-14T10:47:37.406Z,18.00
2023-05-14T10:50:06.777Z,14.00
2023-05-14T10:52:35.574Z,20.00
2023-05-14T10:55:13.046Z,16.00
2023-05-14T10:57:43.893Z,16.00
2023-05-14T11:00:14.338Z,17.33
2023-05-14T11:02:43.195Z,18.50
2023-05-14T11:05:17.164Z,17.50
2023-05-14T11:07:47.381Z,17.50
2023-05-14T11:10:20.310Z,16.33
2023-05-14T11:12:49.924Z,19.00
2023-05-14T11:15:22.858Z,16.00
2023-05-14T11:17:52.581Z,15.33
2023-05-14T11:20:21.363Z,17.00
2023-05-14T11:22:51.813Z,16.00
2023-05-14T11:25:19.133Z,17.00
2023-05-14T11:27:48.165Z,15.67
2023-05-14T11:30:22.377Z,13.67
2023-05-14T11:32:50.465Z,19.00
2023-05-14T11:35:18.967Z,20.00
2023-05-14T11:37:52.656Z,16.00
2023-05-14T11:40:20.275Z,17.00
2023-05-14T11:42:51.504Z,16.00
2023-05-14T11:45:27.516Z,18.50
2023-05-14T11:47:55.393Z,18.67
2023-05-14T11:50:23.659Z,15.00
2023-05-14T11:52:51.155Z,16.00
2023-05-14T11:55:19.428Z,16.00
2023-05-14T11:57:47.608Z,16.33
2023-05-14T12:00:21.937Z,16.00
2023-05-14T12:02:50.457Z,13.00
2023-05-14T12:05:18.891Z,14.67
2023-05-14T12:07:47.979Z,13.67
2023-05-14T12:10:15.850Z,11.00
2023-05-14T12:12:48.488Z,11.33
2023-05-14T12:15:17.181Z,13.50
2023-05-14T12:17:52.189Z,12.00
2023-05-14T12:20:19.316Z,14.00
2023-05-14T12:22:48.805Z,11.83
2023-05-14T12:25:18.387Z,14.67
2023-05-14T12:27:47.109Z,9.60
2023-05-14T12:32:49.098Z,9.60
2023-05-14T12:35:17.032Z,11.00
2023-05-14T12:37:45.789Z,10.60
2023-05-14T12:40:13.152Z,10.00
2023-05-14T12:42:40.217Z,12.00
2023-05-14T12:45:10.468Z,11.33
2023-05-14T12:47:38.239Z,10.67
2023-05-14T12:50:06.728Z,11.00
2023-05-14T12:52:38.676Z,15.00
2023-05-14T12:55:07.642Z,6.50
2023-05-14T12:57:35.968Z,13.00
2023-05-14T13:00:08.169Z,14.00
2023-05-14T13:02:42.061Z,11.40
2023-05-14T13:05:15.865Z,11.00
2023-05-14T13:07:42.861Z,9.00
2023-05-14T13:10:11.673Z,12.33
2023-05-14T13:12:39.051Z,12.00
2023-05-14T13:15:07.457Z,11.00
2023-05-14T13:17:36.429Z,11.00
2023-05-14T13:20:05.007Z,10.33
2023-05-14T13:22:33.117Z,17.67
2023-05-14T13:25:01.139Z,19.00
2023-05-14T13:27:28.187Z,13.00
2023-05-14T13:29:56.899Z,12.00
2023-05-14T13:32:25.970Z,11.00
2023-05-14T13:34:52.833Z,11.50
2023-05-14T13:37:21.861Z,11.20
2023-05-14T13:39:51.606Z,12.00
2023-05-14T13:42:19.620Z,13.33
2023-05-14T13:44:47.492Z,11.00
2023-05-14T13:47:17.058Z,12.33
2023-05-14T13:49:44.958Z,11.00
2023-05-14T13:52:12.727Z,13.00
2023-05-14T13:54:42.337Z,11.83
2023-05-14T13:57:10.368Z,12.00
2023-05-14T13:59:39.444Z,10.40
2023-05-14T14:02:08.277Z,12.00
2023-05-14T14:04:35.985Z,12.67
2023-05-14T14:07:05.128Z,11.60
2023-05-14T14:09:37.039Z,13.00
2023-05-14T14:12:05.843Z,14.00
2023-05-14T14:14:33.688Z,13.33
2023-05-14T14:17:05.842Z,11.33
2023-05-14T14:19:32.753Z,12.00
2023-05-14T14:22:03.271Z,12.00
2023-05-14T14:24:31.171Z,12.33
2023-05-14T14:26:59.047Z,11.33
2023-05-14T14:29:26.133Z,17.50
2023-05-14T14:31:54.870Z,12.00
2023-05-14T14:34:22.763Z,13.00
2023-05-14T14:36:51.066Z,14.00
2023-05-14T14:39:18.085Z,12.00
2023-05-14T14:41:45.832Z,11.00
2023-05-14T14:44:14.007Z,14.67
2023-05-14T14:46:44.777Z,13.00
2023-05-14T14:49:12.502Z,15.00
2023-05-14T14:51:41.076Z,13.00
2023-05-14T14:54:08.149Z,13.00
2023-05-14T14:56:36.255Z,15.00
2023-05-14T14:59:04.046Z,14.67
2023-05-14T15:01:32.184Z,15.67
2023-05-14T15:04:01.974Z,16.67
2023-05-14T15:06:29.679Z,13.33
2023-05-14T15:08:56.607Z,13.00
2023-05-14T15:11:24.852Z,13.00
2023-05-14T15:13:52.810Z,14.00
2023-05-14T15:16:20.941Z,10.00
2023-05-14T15:18:48.590Z,13.00
2023-05-14T15:21:16.556Z,15.00
2023-05-14T15:23:43.309Z,14.50
2023-05-14T15:26:10.990Z,15.33
2023-05-14T15:28:37.923Z,16.00
2023-05-14T15:31:06.505Z,16.00
2023-05-14T15:33:34.103Z,12.00
2023-05-14T15:36:03.796Z,10.50
2023-05-14T15:38:30.898Z,12.50
2023-05-14T15:40:58.679Z,12.67
2023-05-14T15:43:26.498Z,14.00
2023-05-14T15:45:54.387Z,14.33
2023-05-14T15:48:22.128Z,14.50
2023-05-14T15:50:49.879Z,15.00
2023-05-14T15:53:17.956Z,17.00
2023-05-14T15:55:45.218Z,13.50
2023-05-14T15:58:12.942Z,2.00
2023-05-14T16:00:40.718Z,14.67
2023-05-14T16:03:08.931Z,15.67
2023-05-14T16:05:37.093Z,18.33
2023-05-14T16:08:04.201Z,17.50
2023-05-14T16:10:32.773Z,17.00
2023-05-14T16:13:01.033Z,16.33
2023-05-14T16:15:28.479Z,14.50
2023-05-14T16:17:56.321Z,18.33
2023-05-14T16:20:24.309Z,15.00
2023-05-14T16:22:52.292Z,19.00
2023-05-14T16:25:20.701Z,16.00
2023-05-14T16:27:47.581Z,15.50
2023-05-14T16:30:15.787Z,15.00
2023-05-14T16:32:46.772Z,17.67
2023-05-14T16:35:14.745Z,17.50
2023-05-14T16:37:43.346Z,20.00
2023-05-14T16:40:12.510Z,20.00
2023-05-14T16:42:40.714Z,17.50
2023-05-14T16:45:09.658Z,19.33
2023-05-14T16:47:37.710Z,24.67
2023-05-14T16:50:08.462Z,21.00
2023-05-14T16:52:36.233Z,19.67
2023-05-14T16:55:05.088Z,22.00
2023-05-14T16:57:34.847Z,20.00
2023-05-14T17:00:06.321Z,18.00
2023-05-14T17:02:34.664Z,19.67
2023-05-14T17:05:04.196Z,17.33
2023-05-14T17:07:32.157Z,18.00
2023-05-14T17:10:00.807Z,15.00
2023-05-14T17:12:29.035Z,19.50
2023-05-14T17:14:57.584Z,19.67
2023-05-14T17:17:25.557Z,16.00
2023-05-14T17:19:53.386Z,20.00
2023-05-14T17:22:21.388Z,19.00
2023-05-14T17:24:49.172Z,19.00
2023-05-14T17:27:17.075Z,18.00
2023-05-14T17:29:44.934Z,16.00
2023-05-14T17:32:11.979Z,16.00
2023-05-14T17:34:39.815Z,15.00
2023-05-14T17:37:07.726Z,17.00
2023-05-14T17:39:35.765Z,20.00
2023-05-14T17:42:03.955Z,15.00
2023-05-14T17:44:31.808Z,19.00
2023-05-14T17:47:00.900Z,17.67
2023-05-14T17:49:29.210Z,15.00
2023-05-14T17:51:56.433Z,15.50
2023-05-14T17:54:25.107Z,15.00
2023-05-14T17:56:53.151Z,17.00
2023-05-14T17:59:21.198Z,17.00
2023-05-14T18:01:50.454Z,15.67
2023-05-14T18:04:18.462Z,16.50
2023-05-14T18:06:46.167Z,16.67
2023-05-14T18:09:13.013Z,16.00
2023-05-14T18:11:41.243Z,14.00
2023-05-14T18:14:09.420Z,17.33
2023-05-14T18:16:38.853Z,18.00
2023-05-14T18:19:05.972Z,13.00
2023-05-14T18:21:33.799Z,18.00
2023-05-14T18:24:01.626Z,15.50
2023-05-14T18:26:30.791Z,18.50
2023-05-14T18:28:59.405Z,15.33
2023-05-14T18:31:27.993Z,14.33
2023-05-14T18:33:56.216Z,15.33
2023-05-14T18:36:23.206Z,15.00
2023-05-14T18:38:51.074Z,15.67
2023-05-14T18:41:18.325Z,18.50
2023-05-14T18:43:46.002Z,17.33
2023-05-14T18:46:14.144Z,14.00
2023-05-14T18:48:42.753Z,17.33
2023-05-14T18:51:11.428Z,20.00
2023-05-14T18:53:39.453Z,16.00
2023-05-14T18:56:06.649Z,14.00
2023-05-14T18:58:35.063Z,15.00
2023-05-14T19:01:02.968Z,15.00
2023-05-14T19:03:30.810Z,13.00
2023-05-14T19:05:58.907Z,18.50
2023-05-14T19:08:26.851Z,17.00
2023-05-14T19:10:53.769Z,16.00
2023-05-14T19:13:22.445Z,26.00
2023-05-14T19:15:49.353Z,13.50
2023-05-14T19:18:17.800Z,14.00
2023-05-14T19:20:46.726Z,19.00
2023-05-14T19:23:14.731Z,15.00
2023-05-14T19:25:41.722Z,14.00
2023-05-14T19:28:08.890Z,14.50
2023-05-14T19:30:36.172Z,13.00
2023-05-14T19:33:04.611Z,13.00
2023-05-14T19:35:32.505Z,13.00
2023-05-14T19:38:00.475Z,15.00
2023-05-14T19:40:28.896Z,13.33
2023-05-14T19:42:56.564Z,15.00
2023-05-14T19:45:23.642Z,14.00
2023-05-14T19:47:51.799Z,14.00
2023-05-14T19:50:19.774Z,10.67
2023-05-14T19:52:46.719Z,14.00
2023-05-14T19:55:14.571Z,16.00
2023-05-14T19:57:42.568Z,15.67
2023-05-14T20:00:10.617Z,14.00
2023-05-14T20:02:40.763Z,13.33
2023-05-14T20:05:11.750Z,13.50
2023-05-14T20:07:40.733Z,14.00
2023-05-14T20:10:08.932Z,13.00
2023-05-14T20:12:37.391Z,14.00
2023-05-14T20:15:06.276Z,16.33
2023-05-14T20:17:34.079Z,15.67
2023-05-14T20:20:01.931Z,15.00
2023-05-14T20:22:28.832Z,17.00
2023-05-14T20:24:55.963Z,15.00
2023-05-14T20:27:23.725Z,14.50
2023-05-14T20:29:51.791Z,13.33
2023-05-14T20:32:18.758Z,17.00
2023-05-14T20:34:46.499Z,14.00
2023-05-14T20:37:14.349Z,15.50
2023-05-14T20:39:41.143Z,15.00
2023-05-14T20:42:09.025Z,14.00
2023-05-14T20:44:36.789Z,17.00
2023-05-14T20:47:03.789Z,17.00
2023-05-14T20:49:31.439Z,15.00
2023-05-14T20:51:59.069Z,14.00
2023-05-14T20:54:26.719Z,18.00
2023-05-14T20:56:54.566Z,14.67
2023-05-14T20:59:22.408Z,18.00
2023-05-14T21:01:49.358Z,14.00
2023-05-14T21:04:17.443Z,18.00
2023-05-14T21:06:45.457Z,19.00
2023-05-14T21:09:13.670Z,15.67
2023-05-14T21:11:41.373Z,14.33
2023-05-14T21:14:09.147Z,17.00
2023-05-14T21:16:36.120Z,14.00
2023-05-14T21:19:04.883Z,15.00
2023-05-14T21:21:32.702Z,13.33
2023-05-14T21:24:00.744Z,15.67
2023-05-14T21:26:32.827Z,14.00
2023-05-14T21:29:00.952Z,18.00
2023-05-14T21:31:27.880Z,16.50
2023-05-14T21:33:54.956Z,17.00
2023-05-14T21:36:23.020Z,17.00
2023-05-14T21:38:52.746Z,14.50
2023-05-14T21:41:21.321Z,13.00
2023-05-14T21:43:48.996Z,18.33
2023-05-14T21:46:16.986Z,18.00
2023-05-14T21:48:44.721Z,17.00
2023-05-14T21:51:11.903Z,16.00
2023-05-14T21:53:39.530Z,7.67
2023-05-14T21:56:07.188Z,12.50
2023-05-14T21:58:35.507Z,18.00
2023-05-14T22:01:04.312Z,19.33
2023-05-14T22:03:32.129Z,16.50
2023-05-14T22:06:01.883Z,20.50
2023-05-14T22:08:29.882Z,15.00
2023-05-14T22:10:57.139Z,17.00
2023-05-14T22:13:24.972Z,18.00
2023-05-14T22:16:04.886Z,17.00
2023-05-14T22:18:40.591Z,16.67
2023-05-14T22:21:08.470Z,21.00
2023-05-14T22:23:36.378Z,18.67
2023-05-14T22:26:05.251Z,20.00
2023-05-14T22:28:33.887Z,18.33
2023-05-14T22:31:02.671Z,21.67
2023-05-14T22:33:31.826Z,18.00
2023-05-14T22:35:59.739Z,21.00
2023-05-14T22:38:27.545Z,17.50
2023-05-14T22:40:54.486Z,17.00
2023-05-14T22:43:22.267Z,20.00
2023-05-14T22:45:51.268Z,16.33
2023-05-14T22:48:18.142Z,21.00
2023-05-14T22:50:46.795Z,18.00
2023-05-14T22:53:14.618Z,20.00
2023-05-14T22:55:42.423Z,20.00
2023-05-14T22:58:11.434Z,21.00
2023-05-14T23:00:40.064Z,20.00
2023-05-14T23:03:08.026Z,19.00
2023-05-14T23:05:35.192Z,21.00
2023-05-14T23:08:02.094Z,20.00
2023-05-14T23:10:31.350Z,17.00
2023-05-14T23:12:58.328Z,20.00
2023-05-14T23:15:27.360Z,17.33
2023-05-14T23:17:56.205Z,18.00
2023-05-14T23:20:24.292Z,19.00
2023-05-14T23:23:12.375Z,21.00
2023-05-14T23:25:40.217Z,20.00
2023-05-14T23:28:08.942Z,17.67
2023-05-14T23:30:37.571Z,16.33
2023-05-14T23:33:04.822Z,20.00
2023-05-14T23:35:34.734Z,19.00
2023-05-14T23:38:02.613Z,21.00
2023-05-14T23:40:31.766Z,21.00
2023-05-14T23:43:00.904Z,19.33
2023-05-14T23:45:28.883Z,17.50
2023-05-14T23:48:00.885Z,18.50
2023-05-14T23:50:28.144Z,13.00
2023-05-14T23:52:56.206Z,15.00
2023-05-14T23:55:24.156Z,22.00
2023-05-14T23:57:51.521Z,20.50
